This is the latest recevied weather packets stored in our database for station/object WMKA. If no packets are shown the sender has not sent any weather packets the latest 10 day(s).
| Time | Temp. | Humidity | Pressure | Rain* | Wind** | Luminosity | Snow |
|---|---|---|---|---|---|---|---|
| 1777208981 | 28.89° C | 79% | 1008 hPa | - | - | - | - |
| 1777205378 | 30° C | 74% | 1007 hPa | - | - | - | - |
| 1777201780 | 31.67° C | 74% | 1006 hPa | - | - | - | - |
| 1777198185 | 32.78° C | 66% | 1005 hPa | - | - | - | - |
| 1777194580 | 33.89° C | 63% | 1005 hPa | - | - | - | - |
| 1777190979 | 33.89° C | 63% | 1006 hPa | - | - | - | - |
| 1777187378 | 35° C | 59% | 1006 hPa | - | - | - | - |
| 1777184378 | 33.89° C | 59% | 1008 hPa | - | - | - | - |
| 1777183783 | 33.89° C | 56% | 1009 hPa | - | - | - | - |
| 1777180180 | 33.89° C | 56% | 1009 hPa | - | - | - | - |
| 1777176578 | 32.78° C | 62% | 1009 hPa | - | - | - | - |
| 1777172978 | 31.67° C | 62% | 1010 hPa | - | - | - | - |
| 1777169382 | 30° C | 70% | 1010 hPa | - | - | - | - |
| 1777165779 | 27.78° C | 78% | 1010 hPa | - | - | - | - |
| 1777162177 | 25.56° C | 94% | 1009 hPa | - | - | - | - |
| 1777158577 | 25° C | 94% | 1008 hPa | - | - | - | - |
| 1777154977 | 25° C | 94% | 1008 hPa | - | - | - | - |
| 1777151391 | 25.56° C | 88% | 1008 hPa | - | - | - | - |
| 1777149575 | 25.56° C | 94% | 1008 hPa | - | - | - | - |
| 1777147777 | 25.56° C | 94% | 1008 hPa | - | - | - | - |
| 1777144178 | 25.56° C | 94% | 1009 hPa | - | - | - | - |
| 1777140587 | 25.56° C | 94% | 1009 hPa | - | - | - | - |
| 1777136978 | 25.56° C | 94% | 1009 hPa | - | - | - | - |
| 1777133383 | 26.67° C | 88% | 1010 hPa | - | - | - | - |
| 1777129778 | 25.56° C | 94% | 1010 hPa | - | - | - | - |
* Rain since midnight (hover to see other rain measurements)
** Current wind speed in m/s (hover to see current wind gust speed)